NCAR-RAP Real-Time Weather Data

Output produced by METARs form (17 September 2019  16:23 UTC)
found at http://weather.rap.ucar.edu/surface/
 
KMSP 171553Z 17010KT 10SM FEW140 SCT200 BKN250 26/19 A2998 RMK AO2 SLP148 T02560194
KMSP 171453Z 16010KT 10SM SCT200 BKN250 24/19 A2999 RMK AO2 SLP149 T02390189 57004
KMSP 171353Z 15013G20KT 10SM BKN200 OVC250 22/18 A2999 RMK AO2 SLP150 T02220183
KMSP 171253Z 14007KT 10SM BKN200 OVC250 22/18 A3000 RMK AO2 SLP155 T02170178
KMSP 171153Z 14006KT 10SM BKN200 22/18 A3000 RMK AO2 SLP155 T02170178 10239 20211 53004
KMSP 171053Z 14006KT 10SM BKN200 22/18 A2999 RMK AO2 SLP151 T02170183
KMSP 170953Z 12005KT 10SM OVC200 22/18 A2999 RMK AO2 SLP151 T02170183
KMSP 170853Z 10006KT 10SM CLR 22/18 A2999 RMK AO2 SLP149 T02220183 52002
KMSP 170753Z 14005KT 10SM OVC210 23/18 A2999 RMK AO2 SLP148 T02280183
KMSP 170653Z 15006KT 10SM OVC220 23/19 A2999 RMK AO2 SLP148 T02330189
KMSP 170553Z 17008KT 10SM BKN180 OVC210 24/19 A2999 RMK AO2 SLP148 T02390189 10267 20239 403060172 50002
KMSP 170453Z 17009KT 10SM SCT180 OVC200 25/19 A2999 RMK AO2 SLP148 T02500189
KMSP 170353Z 18012KT 10SM BKN220 OVC250 25/19 A2999 RMK AO2 SLP148 T02500189
KMSP 170253Z 17010KT 10SM BKN220 OVC250 26/18 A2998 RMK AO2 SLP148 T02560183 51002
KMSP 170053Z 15007KT 10SM SCT220 BKN250 26/18 A2998 RMK AO2 SLP148 T02610178
KMSP 162353Z 15005KT 10SM SCT220 OVC250 27/18 A2997 RMK AO2 SLP146 T02670178 10306 20267 56003
KMSP 162253Z 15008KT 10SM FEW200 BKN250 28/18 A2998 RMK AO2 SLP147 T02780183
KMSP 162153Z 16010KT 10SM BKN250 29/18 A2998 RMK AO2 SLP146 T02940178
KMSP 162053Z 18013G20KT 10SM BKN250 31/18 A2998 RMK AO2 SLP148 T03060183 56011